Back to Top

Language: 

My Weather Underground Personal Weather Station Historical Data with Graphs...

Delerius Weather Station Historical Data
Daily Summary for November 8, 2017 Units:  English    Metric   Both
« Previous Day
Next Day »
Daily Weekly Monthly Yearly Custom
  High: Low: Average:
Temperature: 51.4 °F 35.2 °F 42.6 °F
Dew Point: 41.5 °F 32.8 °F 37.7 °F
Humidity: 94 % 64 % 83 %
Wind Speed: 8.0 mph 0.0 mph 2.9 mph
Wind Gust: 13.0 mph - -
Wind:- - WNW
Pressure: 30.25 in 30.08 in -
Precipitation: 0.00 in    
Historical Graphs
 
 
Tabular Data for November 8, 2017
Time Temperature Dew Point Pressure Wind Wind Speed Wind Gust Humidity Rainfall Rate (Hourly) solar Conditions
00:02 42.6 °F 39.6 °F 30.08 in WNW 3.0 mph 7.0 mph 89 % 0.00 in 0 W/m2
00:07 42.6 °F 39.6 °F 30.08 in WNW 4.0 mph 9.0 mph 89 % 0.00 in 0 W/m2
00:12 42.6 °F 39.3 °F 30.08 in WNW 4.0 mph 7.0 mph 88 % 0.00 in 0 W/m2
00:17 42.6 °F 39.3 °F 30.08 in WNW 5.0 mph 8.0 mph 88 % 0.00 in 0 W/m2
00:22 42.8 °F 39.5 °F 30.08 in NW 6.0 mph 8.0 mph 88 % 0.00 in 0 W/m2
00:27 42.8 °F 39.5 °F 30.08 in NW 2.0 mph 6.0 mph 88 % 0.00 in 0 W/m2
00:32 42.8 °F 39.5 °F 30.08 in NW 4.0 mph 7.0 mph 88 % 0.00 in 0 W/m2
00:37 42.8 °F 39.5 °F 30.08 in WNW 4.0 mph 7.0 mph 88 % 0.00 in 0 W/m2
00:42 42.8 °F 39.5 °F 30.09 in WNW 6.0 mph 9.0 mph 88 % 0.00 in 0 W/m2
00:47 42.8 °F 39.5 °F 30.09 in WNW 6.0 mph 8.0 mph 88 % 0.00 in 0 W/m2
00:52 42.8 °F 39.5 °F 30.09 in NW 5.0 mph 9.0 mph 88 % 0.00 in 0 W/m2
00:57 42.8 °F 39.2 °F 30.09 in NW 5.0 mph 7.0 mph 87 % 0.00 in 0 W/m2
01:02 42.6 °F 39.3 °F 30.09 in WNW 6.0 mph 9.0 mph 88 % 0.00 in 0 W/m2
01:07 42.6 °F 39.3 °F 30.09 in WNW 5.0 mph 9.0 mph 88 % 0.00 in 0 W/m2
01:22 42.3 °F 39.0 °F 30.09 in WNW 6.0 mph 9.0 mph 88 % 0.00 in 0 W/m2
01:27 42.3 °F 39.0 °F 30.09 in WNW 6.0 mph 9.0 mph 88 % 0.00 in 0 W/m2
01:32 42.3 °F 39.0 °F 30.09 in WNW 5.0 mph 7.0 mph 88 % 0.00 in 0 W/m2
01:37 42.1 °F 38.8 °F 30.10 in WNW 5.0 mph 8.0 mph 88 % 0.00 in 0 W/m2
01:38 42.1 °F 38.8 °F 30.10 in WNW 5.0 mph 8.0 mph 88 % 0.00 in 0 W/m2
01:43 42.1 °F 38.8 °F 30.10 in WNW 4.0 mph 7.0 mph 88 % 0.00 in 0 W/m2
01:48 41.9 °F 38.6 °F 30.10 in WNW 4.0 mph 8.0 mph 88 % 0.00 in 0 W/m2
01:53 41.7 °F 38.4 °F 30.10 in WNW 4.0 mph 7.0 mph 88 % 0.00 in 0 W/m2
01:58 41.7 °F 38.4 °F 30.10 in NW 4.0 mph 8.0 mph 88 % 0.00 in 0 W/m2
02:03 41.5 °F 38.3 °F 30.10 in WNW 4.0 mph 7.0 mph 88 % 0.00 in 0 W/m2
02:08 41.5 °F 38.3 °F 30.10 in WNW 4.0 mph 7.0 mph 88 % 0.00 in 0 W/m2
02:13 41.4 °F 38.1 °F 30.10 in WNW 6.0 mph 9.0 mph 88 % 0.00 in 0 W/m2
02:18 41.2 °F 37.9 °F 30.10 in WNW 5.0 mph 8.0 mph 88 % 0.00 in 0 W/m2
02:23 41.2 °F 37.9 °F 30.10 in WNW 6.0 mph 11.0 mph 88 % 0.00 in 0 W/m2
02:28 41.2 °F 38.2 °F 30.10 in WNW 5.0 mph 9.0 mph 89 % 0.00 in 0 W/m2
02:33 41.0 °F 37.7 °F 30.10 in WNW 6.0 mph 9.0 mph 88 % 0.00 in 0 W/m2
02:38 41.0 °F 37.7 °F 30.11 in WNW 6.0 mph 8.0 mph 88 % 0.00 in 0 W/m2
02:43 40.8 °F 37.5 °F 30.11 in WNW 3.0 mph 7.0 mph 88 % 0.00 in 0 W/m2
02:48 40.8 °F 37.5 °F 30.11 in NW 3.0 mph 6.0 mph 88 % 0.00 in 0 W/m2
02:53 40.6 °F 37.4 °F 30.11 in NW 3.0 mph 6.0 mph 88 % 0.00 in 0 W/m2
02:58 40.6 °F 37.4 °F 30.12 in NNW 2.0 mph 6.0 mph 88 % 0.00 in 0 W/m2
03:03 40.6 °F 37.1 °F 30.12 in NNW 2.0 mph 5.0 mph 87 % 0.00 in 0 W/m2
03:08 40.5 °F 36.9 °F 30.12 in NNW 1.0 mph 4.0 mph 87 % 0.00 in 0 W/m2
03:14 40.5 °F 37.2 °F 30.12 in NW 3.0 mph 7.0 mph 88 % 0.00 in 0 W/m2
03:19 40.3 °F 37.0 °F 30.12 in NW 5.0 mph 7.0 mph 88 % 0.00 in 0 W/m2
03:22 40.3 °F 37.0 °F 30.12 in NW 5.0 mph 8.0 mph 88 % 0.00 in 0 W/m2
03:27 40.5 °F 37.2 °F 30.13 in NW 4.0 mph 7.0 mph 88 % 0.00 in 0 W/m2
03:32 40.5 °F 37.2 °F 30.13 in NW 5.0 mph 8.0 mph 88 % 0.00 in 0 W/m2
03:37 40.5 °F 37.2 °F 30.13 in NW 4.0 mph 8.0 mph 88 % 0.00 in 0 W/m2
03:42 40.5 °F 37.2 °F 30.13 in NW 5.0 mph 8.0 mph 88 % 0.00 in 0 W/m2
03:47 40.5 °F 37.2 °F 30.13 in WNW 5.0 mph 8.0 mph 88 % 0.00 in 0 W/m2
03:52 40.3 °F 36.7 °F 30.14 in NW 4.0 mph 6.0 mph 87 % 0.00 in 0 W/m2
03:57 40.3 °F 36.7 °F 30.13 in NW 4.0 mph 8.0 mph 87 % 0.00 in 0 W/m2
04:03 40.1 °F 36.8 °F 30.14 in NW 5.0 mph 7.0 mph 88 % 0.00 in 0 W/m2
04:08 39.9 °F 36.7 °F 30.14 in NW 6.0 mph 8.0 mph 88 % 0.00 in 0 W/m2
04:13 39.7 °F 36.5 °F 30.14 in NW 5.0 mph 7.0 mph 88 % 0.00 in 0 W/m2
04:18 39.7 °F 36.5 °F 30.14 in NW 4.0 mph 7.0 mph 88 % 0.00 in 0 W/m2
04:23 39.6 °F 36.3 °F 30.14 in WNW 6.0 mph 9.0 mph 88 % 0.00 in 0 W/m2
04:24 39.6 °F 36.3 °F 30.14 in WNW 6.0 mph 9.0 mph 88 % 0.00 in 0 W/m2
04:29 39.4 °F 36.1 °F 30.14 in NW 5.0 mph 8.0 mph 88 % 0.00 in 0 W/m2
04:34 39.4 °F 36.1 °F 30.14 in WNW 5.0 mph 7.0 mph 88 % 0.00 in 0 W/m2
04:44 39.0 °F 35.8 °F 30.14 in NW 5.0 mph 7.0 mph 88 % 0.00 in 0 W/m2
04:49 38.8 °F 35.6 °F 30.15 in NW 5.0 mph 8.0 mph 88 % 0.00 in 0 W/m2
04:54 38.8 °F 35.6 °F 30.15 in NW 6.0 mph 9.0 mph 88 % 0.00 in 0 W/m2
04:59 38.8 °F 35.6 °F 30.15 in WNW 5.0 mph 7.0 mph 88 % 0.00 in 0 W/m2
05:04 38.7 °F 35.4 °F 30.15 in WNW 4.0 mph 8.0 mph 88 % 0.00 in 0 W/m2
05:09 38.7 °F 35.4 °F 30.15 in WNW 6.0 mph 8.0 mph 88 % 0.00 in 0 W/m2
05:14 38.7 °F 35.4 °F 30.15 in WNW 6.0 mph 9.0 mph 88 % 0.00 in 0 W/m2
05:19 38.7 °F 35.4 °F 30.15 in WNW 5.0 mph 9.0 mph 88 % 0.00 in 0 W/m2
05:24 38.7 °F 35.4 °F 30.16 in WNW 6.0 mph 9.0 mph 88 % 0.00 in 0 W/m2
05:29 38.7 °F 35.4 °F 30.16 in WNW 5.0 mph 8.0 mph 88 % 0.00 in 0 W/m2
05:34 38.5 °F 34.9 °F 30.16 in WNW 5.0 mph 8.0 mph 87 % 0.00 in 0 W/m2
05:39 38.3 °F 34.8 °F 30.16 in WNW 4.0 mph 7.0 mph 87 % 0.00 in 0 W/m2
05:44 38.1 °F 34.9 °F 30.16 in NW 3.0 mph 6.0 mph 88 % 0.00 in 0 W/m2
05:49 37.9 °F 34.7 °F 30.16 in WNW 4.0 mph 7.0 mph 88 % 0.00 in 0 W/m2
05:54 37.9 °F 34.7 °F 30.17 in WNW 3.0 mph 5.0 mph 88 % 0.00 in 0 W/m2
05:59 37.8 °F 34.5 °F 30.17 in NW 3.0 mph 6.0 mph 88 % 0.00 in 0 W/m2
06:04 37.6 °F 34.3 °F 30.17 in NW 2.0 mph 5.0 mph 88 % 0.00 in 0 W/m2
06:09 37.4 °F 34.2 °F 30.17 in NW 2.0 mph 4.0 mph 88 % 0.00 in 0 W/m2
06:14 37.2 °F 34.0 °F 30.17 in NW 2.0 mph 5.0 mph 88 % 0.00 in 0 W/m2
06:19 37.0 °F 33.8 °F 30.18 in Calm   1.0 mph 88 % 0.00 in 0 W/m2
06:24 36.9 °F 33.6 °F 30.18 in NW 1.0 mph 2.0 mph 88 % 0.00 in 0 W/m2
06:29 36.7 °F 33.5 °F 30.18 in Calm   1.0 mph 88 % 0.00 in 0 W/m2
06:34 36.3 °F 33.1 °F 30.18 in NW 1.0 mph 2.0 mph 88 % 0.00 in 0 W/m2
06:39 36.0 °F 32.8 °F 30.18 in NW 3.0 mph 5.0 mph 88 % 0.00 in 0 W/m2
06:44 35.8 °F 32.9 °F 30.18 in NW 3.0 mph 5.0 mph 89 % 0.00 in 0 W/m2
06:49 35.8 °F 32.9 °F 30.19 in WNW 2.0 mph 5.0 mph 89 % 0.00 in 0 W/m2
06:55 35.6 °F 33.0 °F 30.19 in NW 3.0 mph 5.0 mph 90 % 0.00 in 0 W/m2
07:00 35.6 °F 33.0 °F 30.19 in WNW 1.0 mph 4.0 mph 90 % 0.00 in 0 W/m2
07:05 35.6 °F 33.0 °F 30.19 in WNW 1.0 mph 3.0 mph 90 % 0.00 in 0 W/m2
07:10 35.4 °F 32.8 °F 30.19 in NW 2.0 mph 5.0 mph 90 % 0.00 in 0 W/m2
07:15 35.2 °F 32.9 °F 30.19 in WNW 3.0 mph 5.0 mph 91 % 0.00 in 5 W/m2
07:20 35.2 °F 32.9 °F 30.20 in WNW 1.0 mph 4.0 mph 91 % 0.00 in 5 W/m2
07:25 35.2 °F 32.9 °F 30.20 in WNW 3.0 mph 5.0 mph 91 % 0.00 in 7 W/m2
07:30 35.2 °F 32.9 °F 30.21 in WNW 3.0 mph 6.0 mph 91 % 0.00 in 11 W/m2
07:35 35.2 °F 32.9 °F 30.21 in WNW 2.0 mph 6.0 mph 91 % 0.00 in 12 W/m2
07:40 35.2 °F 32.9 °F 30.21 in WNW 4.0 mph 6.0 mph 91 % 0.00 in 14 W/m2
07:45 35.4 °F 33.3 °F 30.21 in WNW 6.0 mph 9.0 mph 92 % 0.00 in 16 W/m2
07:50 36.0 °F 33.9 °F 30.21 in WNW 5.0 mph 7.0 mph 92 % 0.00 in 18 W/m2
07:55 36.3 °F 34.2 °F 30.21 in NW 3.0 mph 7.0 mph 92 % 0.00 in 18 W/m2
08:00 36.5 °F 34.1 °F 30.22 in NW 3.0 mph 6.0 mph 91 % 0.00 in 19 W/m2
08:05 36.9 °F 34.5 °F 30.22 in WNW 5.0 mph 8.0 mph 91 % 0.00 in 21 W/m2
08:10 37.2 °F 34.6 °F 30.22 in NW 4.0 mph 7.0 mph 90 % 0.00 in 23 W/m2
08:15 37.6 °F 34.6 °F 30.22 in WNW 3.0 mph 6.0 mph 89 % 0.00 in 23 W/m2
08:20 37.8 °F 34.8 °F 30.23 in WNW 3.0 mph 6.0 mph 89 % 0.00 in 25 W/m2
08:25 38.1 °F 34.9 °F 30.23 in WNW 4.0 mph 7.0 mph 88 % 0.00 in 26 W/m2
08:30 38.5 °F 35.2 °F 30.23 in WNW 3.0 mph 5.0 mph 88 % 0.00 in 26 W/m2
08:35 38.8 °F 35.3 °F 30.23 in WNW 2.0 mph 5.0 mph 87 % 0.00 in 28 W/m2
08:40 39.0 °F 35.5 °F 30.23 in WNW 2.0 mph 6.0 mph 87 % 0.00 in 30 W/m2
08:45 39.4 °F 35.5 °F 30.23 in WNW 3.0 mph 6.0 mph 86 % 0.00 in 63 W/m2
08:50 39.7 °F 35.9 °F 30.23 in WNW 3.0 mph 6.0 mph 86 % 0.00 in 165 W/m2
08:55 40.1 °F 36.2 °F 30.23 in WNW 4.0 mph 6.0 mph 86 % 0.00 in 178 W/m2
09:00 40.5 °F 36.3 °F 30.23 in WNW 3.0 mph 6.0 mph 85 % 0.00 in 185 W/m2
09:05 40.8 °F 36.4 °F 30.23 in WNW 5.0 mph 7.0 mph 84 % 0.00 in 197 W/m2
09:10 41.5 °F 37.4 °F 30.23 in WNW 3.0 mph 6.0 mph 85 % 0.00 in 207 W/m2
09:15 42.3 °F 37.5 °F 30.23 in WNW 3.0 mph 7.0 mph 83 % 0.00 in 216 W/m2
09:20 43.0 °F 37.9 °F 30.23 in WNW 4.0 mph 7.0 mph 82 % 0.00 in 225 W/m2
09:25 43.5 °F 38.1 °F 30.23 in WNW 4.0 mph 6.0 mph 81 % 0.00 in 237 W/m2
09:31 44.2 °F 38.1 °F 30.23 in WNW 5.0 mph 9.0 mph 79 % 0.00 in 244 W/m2
09:36 44.6 °F 38.2 °F 30.24 in WNW 5.0 mph 8.0 mph 78 % 0.00 in 253 W/m2
09:41 45.0 °F 38.2 °F 30.24 in WNW 5.0 mph 9.0 mph 77 % 0.00 in 260 W/m2
09:46 45.3 °F 38.2 °F 30.24 in WNW 6.0 mph 8.0 mph 76 % 0.00 in 269 W/m2
09:51 45.7 °F 38.5 °F 30.24 in WNW 5.0 mph 7.0 mph 76 % 0.00 in 278 W/m2
09:56 46.0 °F 38.2 °F 30.24 in WNW 5.0 mph 9.0 mph 74 % 0.00 in 287 W/m2
10:01 46.2 °F 38.4 °F 30.24 in WNW 5.0 mph 8.0 mph 74 % 0.00 in 292 W/m2
10:06 46.6 °F 38.4 °F 30.24 in NW 3.0 mph 6.0 mph 73 % 0.00 in 299 W/m2
10:11 46.9 °F 38.4 °F 30.24 in WNW 6.0 mph 9.0 mph 72 % 0.00 in 308 W/m2
10:16 47.1 °F 38.6 °F 30.24 in NW 4.0 mph 7.0 mph 72 % 0.00 in 315 W/m2
10:21 47.5 °F 38.5 °F 30.24 in WNW 6.0 mph 9.0 mph 71 % 0.00 in 320 W/m2
10:26 47.7 °F 38.7 °F 30.24 in WNW 4.0 mph 7.0 mph 71 % 0.00 in 327 W/m2
10:31 48.0 °F 38.7 °F 30.25 in NW 2.0 mph 6.0 mph 70 % 0.00 in 332 W/m2
10:36 48.6 °F 38.8 °F 30.24 in NW 3.0 mph 8.0 mph 69 % 0.00 in 338 W/m2
10:41 48.6 °F 38.1 °F 30.24 in WNW 5.0 mph 8.0 mph 67 % 0.00 in 343 W/m2
10:46 48.7 °F 38.3 °F 30.24 in WNW 5.0 mph 8.0 mph 67 % 0.00 in 348 W/m2
10:51 48.7 °F 38.6 °F 30.25 in NW 3.0 mph 5.0 mph 68 % 0.00 in 352 W/m2
10:56 49.1 °F 39.0 °F 30.25 in NW 3.0 mph 7.0 mph 68 % 0.00 in 355 W/m2
11:01 49.6 °F 39.5 °F 30.25 in NW 2.0 mph 7.0 mph 68 % 0.00 in 359 W/m2
11:06 49.8 °F 38.9 °F 30.25 in WNW 6.0 mph 9.0 mph 66 % 0.00 in 362 W/m2
11:11 49.8 °F 39.3 °F 30.25 in NW 5.0 mph 10.0 mph 67 % 0.00 in 369 W/m2
11:16 50.0 °F 39.5 °F 30.25 in WNW 4.0 mph 9.0 mph 67 % 0.00 in 371 W/m2
11:21 50.2 °F 39.3 °F 30.25 in NW 4.0 mph 9.0 mph 66 % 0.00 in 378 W/m2
11:26 50.4 °F 39.4 °F 30.25 in WNW 6.0 mph 9.0 mph 66 % 0.00 in 381 W/m2
11:31 50.5 °F 40.0 °F 30.25 in NNW 5.0 mph 11.0 mph 67 % 0.00 in 383 W/m2
11:36 50.5 °F 40.0 °F 30.25 in NW 6.0 mph 11.0 mph 67 % 0.00 in 306 W/m2
11:41 50.5 °F 40.0 °F 30.25 in NW 6.0 mph 10.0 mph 67 % 0.00 in 341 W/m2
11:46 50.4 °F 39.8 °F 30.24 in NW 7.0 mph 12.0 mph 67 % 0.00 in 374 W/m2
11:51 50.4 °F 40.2 °F 30.25 in NW 7.0 mph 10.0 mph 68 % 0.00 in 367 W/m2
11:56 50.5 °F 40.4 °F 30.24 in NW 7.0 mph 10.0 mph 68 % 0.00 in 359 W/m2
12:01 50.5 °F 41.1 °F 30.24 in WNW 6.0 mph 9.0 mph 70 % 0.00 in 352 W/m2
12:06 50.7 °F 41.3 °F 30.24 in WNW 4.0 mph 7.0 mph 70 % 0.00 in 360 W/m2
12:11 50.7 °F 40.9 °F 30.24 in NNW 5.0 mph 7.0 mph 69 % 0.00 in 341 W/m2
12:16 50.9 °F 40.7 °F 30.25 in NW 4.0 mph 10.0 mph 68 % 0.00 in 345 W/m2
12:22 50.9 °F 40.7 °F 30.25 in NNW 4.0 mph 8.0 mph 68 % 0.00 in 330 W/m2
12:27 50.7 °F 40.2 °F 30.25 in NW 5.0 mph 9.0 mph 67 % 0.00 in 330 W/m2
12:32 51.1 °F 40.9 °F 30.25 in NW 5.0 mph 8.0 mph 68 % 0.00 in 330 W/m2
12:37 51.3 °F 41.1 °F 30.25 in NNW 5.0 mph 9.0 mph 68 % 0.00 in 338 W/m2
12:42 51.4 °F 40.8 °F 30.25 in NW 5.0 mph 9.0 mph 67 % 0.00 in 315 W/m2
12:47 51.3 °F 40.3 °F 30.25 in NW 8.0 mph 12.0 mph 66 % 0.00 in 325 W/m2
12:52 51.3 °F 40.3 °F 30.25 in NW 5.0 mph 11.0 mph 66 % 0.00 in 318 W/m2
12:57 51.3 °F 40.7 °F 30.25 in NW 3.0 mph 7.0 mph 67 % 0.00 in 345 W/m2
13:02 51.4 °F 40.5 °F 30.25 in WNW 8.0 mph 13.0 mph 66 % 0.00 in 316 W/m2
13:07 51.4 °F 39.7 °F 30.25 in NW 7.0 mph 10.0 mph 64 % 0.00 in 295 W/m2
13:12 51.4 °F 39.7 °F 30.25 in NW 5.0 mph 9.0 mph 64 % 0.00 in 297 W/m2
13:17 51.4 °F 40.1 °F 30.25 in NW 6.0 mph 9.0 mph 65 % 0.00 in 279 W/m2
13:22 51.4 °F 40.1 °F 30.25 in NW 7.0 mph 11.0 mph 65 % 0.00 in 283 W/m2
13:27 51.3 °F 40.3 °F 30.25 in NW 6.0 mph 10.0 mph 66 % 0.00 in 267 W/m2
13:32 51.1 °F 39.7 °F 30.25 in WNW 6.0 mph 11.0 mph 65 % 0.00 in 265 W/m2
13:37 51.3 °F 39.9 °F 30.25 in WNW 5.0 mph 10.0 mph 65 % 0.00 in 267 W/m2
13:42 51.3 °F 39.5 °F 30.25 in WNW 7.0 mph 11.0 mph 64 % 0.00 in 236 W/m2
13:47 51.3 °F 39.5 °F 30.25 in WNW 6.0 mph 11.0 mph 64 % 0.00 in 237 W/m2
13:52 51.3 °F 39.9 °F 30.24 in WNW 3.0 mph 6.0 mph 65 % 0.00 in 260 W/m2
13:57 51.3 °F 40.3 °F 30.24 in NNW 4.0 mph 8.0 mph 66 % 0.00 in 250 W/m2
14:02 51.3 °F 40.7 °F 30.24 in WNW 5.0 mph 8.0 mph 67 % 0.00 in 236 W/m2
14:07 51.3 °F 40.7 °F 30.24 in West 6.0 mph 9.0 mph 67 % 0.00 in 176 W/m2
14:12 51.1 °F 40.5 °F 30.24 in West 4.0 mph 8.0 mph 67 % 0.00 in 171 W/m2
14:17 50.7 °F 39.8 °F 30.24 in West 5.0 mph 11.0 mph 66 % 0.00 in 165 W/m2
14:22 50.7 °F 40.2 °F 30.24 in WNW 4.0 mph 7.0 mph 67 % 0.00 in 181 W/m2
14:25 50.7 °F 40.5 °F 30.24 in West 4.0 mph 9.0 mph 68 % 0.00 in 197 W/m2
14:30 50.9 °F 40.7 °F 30.24 in WNW 3.0 mph 7.0 mph 68 % 0.00 in 206 W/m2
14:35 51.1 °F 40.9 °F 30.24 in West 3.0 mph 6.0 mph 68 % 0.00 in 142 W/m2
14:40 51.1 °F 40.5 °F 30.24 in WSW 4.0 mph 6.0 mph 67 % 0.00 in 202 W/m2
14:45 51.1 °F 40.5 °F 30.24 in WSW 5.0 mph 8.0 mph 67 % 0.00 in 192 W/m2
14:50 50.7 °F 40.5 °F 30.24 in West 4.0 mph 8.0 mph 68 % 0.00 in 127 W/m2
14:55 50.4 °F 40.2 °F 30.24 in West 4.0 mph 8.0 mph 68 % 0.00 in 70 W/m2
15:00 49.8 °F 40.4 °F 30.24 in West 4.0 mph 7.0 mph 70 % 0.00 in 88 W/m2
15:05 49.5 °F 40.1 °F 30.24 in West 7.0 mph 11.0 mph 70 % 0.00 in 79 W/m2
15:10 49.1 °F 40.1 °F 30.24 in WNW 5.0 mph 9.0 mph 71 % 0.00 in 33 W/m2
15:15 48.7 °F 40.1 °F 30.24 in West 6.0 mph 9.0 mph 72 % 0.00 in 28 W/m2
15:20 48.6 °F 40.3 °F 30.24 in WNW 4.0 mph 7.0 mph 73 % 0.00 in 23 W/m2
15:25 48.4 °F 40.1 °F 30.24 in West 3.0 mph 7.0 mph 73 % 0.00 in 21 W/m2
15:30 48.0 °F 40.1 °F 30.25 in West 4.0 mph 7.0 mph 74 % 0.00 in 19 W/m2
15:35 47.7 °F 40.1 °F 30.25 in West 4.0 mph 8.0 mph 75 % 0.00 in 18 W/m2
15:40 47.1 °F 39.6 °F 30.25 in West 3.0 mph 8.0 mph 75 % 0.00 in 18 W/m2
15:45 46.9 °F 39.8 °F 30.25 in WNW 2.0 mph 5.0 mph 76 % 0.00 in 18 W/m2
15:50 46.8 °F 39.6 °F 30.25 in WNW 1.0 mph 4.0 mph 76 % 0.00 in 18 W/m2
15:55 46.4 °F 39.6 °F 30.25 in Calm     77 % 0.00 in 14 W/m2
16:00 46.0 °F 39.2 °F 30.25 in Calm   1.0 mph 77 % 0.00 in 11 W/m2
16:05 45.9 °F 39.1 °F 30.25 in WNW 1.0 mph 2.0 mph 77 % 0.00 in 9 W/m2
16:10 45.5 °F 39.0 °F 30.25 in Calm   2.0 mph 78 % 0.00 in 7 W/m2
16:15 45.1 °F 38.7 °F 30.25 in Calm     78 % 0.00 in 5 W/m2
16:20 44.8 °F 38.3 °F 30.25 in Calm     78 % 0.00 in 0 W/m2
16:25 44.4 °F 38.3 °F 30.25 in Calm     79 % 0.00 in 0 W/m2
16:30 44.1 °F 38.3 °F 30.25 in Calm     80 % 0.00 in 0 W/m2
16:35 43.5 °F 37.8 °F 30.25 in Calm     80 % 0.00 in 0 W/m2
16:40 43.2 °F 37.7 °F 30.25 in Calm     81 % 0.00 in 0 W/m2
16:45 43.0 °F 37.9 °F 30.25 in WNW 1.0 mph 2.0 mph 82 % 0.00 in 0 W/m2
16:50 42.6 °F 37.8 °F 30.25 in WNW 1.0 mph 3.0 mph 83 % 0.00 in 0 W/m2
16:55 42.4 °F 37.9 °F 30.25 in Calm   1.0 mph 84 % 0.00 in 0 W/m2
17:01 42.3 °F 37.8 °F 30.25 in Calm     84 % 0.00 in 0 W/m2
17:06 42.1 °F 37.6 °F 30.25 in Calm     84 % 0.00 in 0 W/m2
17:11 41.7 °F 37.2 °F 30.25 in Calm     84 % 0.00 in 0 W/m2
17:16 41.4 °F 37.2 °F 30.25 in Calm     85 % 0.00 in 0 W/m2
17:21 41.2 °F 37.0 °F 30.24 in Calm   1.0 mph 85 % 0.00 in 0 W/m2
17:26 40.8 °F 36.7 °F 30.24 in Calm     85 % 0.00 in 0 W/m2
17:31 40.6 °F 36.8 °F 30.24 in Calm     86 % 0.00 in 0 W/m2
17:36 40.5 °F 36.6 °F 30.24 in Calm     86 % 0.00 in 0 W/m2
17:41 40.3 °F 36.7 °F 30.24 in Calm     87 % 0.00 in 0 W/m2
17:46 40.1 °F 36.5 °F 30.25 in Calm     87 % 0.00 in 0 W/m2
17:51 39.9 °F 36.4 °F 30.25 in Calm     87 % 0.00 in 0 W/m2
17:56 39.7 °F 36.2 °F 30.25 in Calm     87 % 0.00 in 0 W/m2
18:01 39.6 °F 36.3 °F 30.25 in Calm     88 % 0.00 in 0 W/m2
18:06 39.4 °F 36.1 °F 30.25 in Calm     88 % 0.00 in 0 W/m2
18:16 39.0 °F 36.1 °F 30.25 in Calm     89 % 0.00 in 0 W/m2
18:21 38.8 °F 35.9 °F 30.25 in Calm     89 % 0.00 in 0 W/m2
18:26 38.8 °F 35.9 °F 30.25 in Calm     89 % 0.00 in 0 W/m2
18:31 38.7 °F 35.7 °F 30.25 in Calm     89 % 0.00 in 0 W/m2
18:36 38.5 °F 35.8 °F 30.24 in Calm     90 % 0.00 in 0 W/m2
18:41 38.3 °F 35.6 °F 30.24 in Calm     90 % 0.00 in 0 W/m2
18:46 38.1 °F 35.4 °F 30.24 in Calm     90 % 0.00 in 0 W/m2
18:51 37.9 °F 35.3 °F 30.24 in Calm     90 % 0.00 in 0 W/m2
18:56 37.9 °F 35.5 °F 30.24 in Calm     91 % 0.00 in 0 W/m2
19:01 37.9 °F 35.5 °F 30.24 in Calm     91 % 0.00 in 0 W/m2
19:06 37.9 °F 35.5 °F 30.24 in Calm     91 % 0.00 in 0 W/m2
19:11 37.8 °F 35.4 °F 30.24 in Calm     91 % 0.00 in 0 W/m2
19:16 37.6 °F 35.2 °F 30.24 in Calm     91 % 0.00 in 0 W/m2
19:21 37.2 °F 34.8 °F 30.24 in Calm   1.0 mph 91 % 0.00 in 0 W/m2
19:26 37.4 °F 35.0 °F 30.24 in Calm   1.0 mph 91 % 0.00 in 0 W/m2
19:31 37.4 °F 35.3 °F 30.24 in Calm     92 % 0.00 in 0 W/m2
19:36 37.4 °F 35.3 °F 30.24 in Calm     92 % 0.00 in 0 W/m2
19:41 37.6 °F 35.5 °F 30.24 in Calm     92 % 0.00 in 0 W/m2
19:46 37.6 °F 35.5 °F 30.24 in Calm     92 % 0.00 in 0 W/m2
19:51 37.6 °F 35.7 °F 30.23 in Calm     93 % 0.00 in 0 W/m2
19:56 37.6 °F 35.7 °F 30.23 in Calm     93 % 0.00 in 0 W/m2
19:58 37.6 °F 35.7 °F 30.23 in Calm     93 % 0.00 in 0 W/m2
20:03 37.6 °F 35.7 °F 30.23 in Calm     93 % 0.00 in 0 W/m2
20:08 37.8 °F 35.9 °F 30.23 in Calm     93 % 0.00 in 0 W/m2
20:13 37.9 °F 36.4 °F 30.23 in Calm     94 % 0.00 in 0 W/m2
20:18 38.3 °F 36.7 °F 30.23 in Calm     94 % 0.00 in 0 W/m2
20:23 38.7 °F 37.1 °F 30.23 in Calm     94 % 0.00 in 0 W/m2
20:28 38.8 °F 37.3 °F 30.23 in Calm     94 % 0.00 in 0 W/m2
20:33 38.8 °F 37.3 °F 30.22 in Calm     94 % 0.00 in 0 W/m2
20:38 38.8 °F 37.0 °F 30.22 in Calm     93 % 0.00 in 0 W/m2
20:43 38.8 °F 37.0 °F 30.22 in Calm     93 % 0.00 in 0 W/m2
20:48 39.0 °F 37.2 °F 30.22 in Calm     93 % 0.00 in 0 W/m2
20:53 39.0 °F 37.4 °F 30.22 in Calm     94 % 0.00 in 0 W/m2
20:58 39.2 °F 37.3 °F 30.22 in Calm     93 % 0.00 in 0 W/m2
21:03 39.2 °F 37.3 °F 30.22 in Calm     93 % 0.00 in 0 W/m2
21:08 39.2 °F 37.3 °F 30.21 in Calm     93 % 0.00 in 0 W/m2
21:13 39.2 °F 37.3 °F 30.21 in Calm     93 % 0.00 in 0 W/m2
21:18 39.2 °F 37.3 °F 30.21 in South 1.0 mph 6.0 mph 93 % 0.00 in 0 W/m2
21:23 39.4 °F 37.5 °F 30.21 in Calm   1.0 mph 93 % 0.00 in 0 W/m2
21:28 39.6 °F 37.7 °F 30.21 in South 1.0 mph 2.0 mph 93 % 0.00 in 0 W/m2
21:33 39.7 °F 37.9 °F 30.21 in West 2.0 mph 4.0 mph 93 % 0.00 in 0 W/m2
21:38 39.9 °F 38.1 °F 30.21 in West 1.0 mph 3.0 mph 93 % 0.00 in 0 W/m2
21:44 40.1 °F 38.2 °F 30.21 in Calm   3.0 mph 93 % 0.00 in 0 W/m2
21:49 40.3 °F 38.4 °F 30.21 in WNW 1.0 mph 2.0 mph 93 % 0.00 in 0 W/m2
21:54 40.5 °F 38.6 °F 30.21 in WNW 1.0 mph 2.0 mph 93 % 0.00 in 0 W/m2
21:59 40.8 °F 38.7 °F 30.21 in Calm   2.0 mph 92 % 0.00 in 0 W/m2
22:04 41.0 °F 38.9 °F 30.20 in Calm   1.0 mph 92 % 0.00 in 0 W/m2
22:09 41.2 °F 39.0 °F 30.20 in Calm   2.0 mph 92 % 0.00 in 0 W/m2
22:14 41.4 °F 38.9 °F 30.20 in Calm     91 % 0.00 in 0 W/m2
22:19 41.5 °F 39.1 °F 30.20 in Calm     91 % 0.00 in 0 W/m2
22:24 41.7 °F 39.3 °F 30.20 in Calm     91 % 0.00 in 0 W/m2
22:29 41.7 °F 39.0 °F 30.20 in Calm     90 % 0.00 in 0 W/m2
22:34 42.1 °F 39.4 °F 30.19 in NW 2.0 mph 6.0 mph 90 % 0.00 in 0 W/m2
22:39 42.3 °F 39.5 °F 30.19 in Calm   2.0 mph 90 % 0.00 in 0 W/m2
22:44 42.3 °F 39.2 °F 30.19 in Calm     89 % 0.00 in 0 W/m2
22:49 42.4 °F 39.4 °F 30.19 in Calm     89 % 0.00 in 0 W/m2
22:54 42.4 °F 39.4 °F 30.19 in Calm     89 % 0.00 in 0 W/m2
22:59 42.6 °F 39.6 °F 30.19 in Calm     89 % 0.00 in 0 W/m2
23:04 42.6 °F 39.6 °F 30.18 in Calm     89 % 0.00 in 0 W/m2
23:09 42.6 °F 39.9 °F 30.18 in Calm   2.0 mph 90 % 0.00 in 0 W/m2
23:14 42.6 °F 39.6 °F 30.17 in East 1.0 mph 3.0 mph 89 % 0.00 in 0 W/m2
23:19 42.6 °F 39.9 °F 30.17 in Calm     90 % 0.00 in 0 W/m2
23:24 42.6 °F 39.9 °F 30.17 in SE 1.0 mph 4.0 mph 90 % 0.00 in 0 W/m2
23:29 43.0 °F 40.2 °F 30.17 in WSW 2.0 mph 6.0 mph 90 % 0.00 in 0 W/m2
23:34 43.2 °F 40.4 °F 30.17 in Calm     90 % 0.00 in 0 W/m2
23:39 43.2 °F 40.4 °F 30.17 in Calm     90 % 0.00 in 0 W/m2
23:44 43.3 °F 40.6 °F 30.17 in WSW 1.0 mph 3.0 mph 90 % 0.00 in 0 W/m2
23:49 43.5 °F 40.8 °F 30.17 in WNW 3.0 mph 5.0 mph 90 % 0.00 in 0 W/m2
23:54 43.9 °F 41.1 °F 30.16 in West 4.0 mph 6.0 mph 90 % 0.00 in 0 W/m2
23:59 44.2 °F 41.5 °F 30.16 in WNW 5.0 mph 7.0 mph 90 % 0.00 in 0 W/m2
Delerius-Weather
Compliments of Weather Underground - 2.25 mb

Data updates at regular intervals.